Ruby Princess — ZCDY2 — position and weather

sailwx.info

Track history (hours):
 
Tides and Currents Weather Stations Pressure Air Temp Water Temp Dewpoint Dewpoint Depression Visibility Wind Speed Wind Dir Waves Ship Positions

Ruby Princess

Last reported at 2017-Jul-22 18:28 UTC. Time now 2017-Jul-22 18:30 UTC.
Position N 47°38' W 122°23'.

Length 289 m; draft 8.6 m.

Type: Ship. MMSI: 310567000.

Date/timePositionNaut miles runAvg speedWind from/ knotsBaromVisibWave heightAir tempDewpointWater temp
2017-Jul-22 18:28N 47°38' W 122°23'0 0.0
2017-Jul-22 18:00N 47°38' W 122°23'0 0.0
2017-Jul-22 17:30N 47°38' W 122°23'0 0.0
2017-Jul-22 17:00N 47°38' W 122°23'0 0.0
2017-Jul-22 16:30N 47°38' W 122°23'0 0.0
2017-Jul-22 16:00N 47°38' W 122°23'0 0.0
2017-Jul-22 15:26N 47°38' W 122°23'0 0.0
2017-Jul-22 14:59N 47°38' W 122°23'0 0.0
2017-Jul-22 13:59N 47°38' W 122°23'0 0.0
2017-Jul-22 13:29N 47°38' W 122°23'0 0.0
2017-Jul-22 13:00N 47°38' W 122°23'1 2.9
2017-Jul-22 12:30N 47°37' W 122°25'510.4
2017-Jul-22 12:00N 47°42' W 122°28'714.8
2017-Jul-22 11:30N 47°49' W 122°28'714.9
2017-Jul-22 11:00N 47°56' W 122°32'815.6
2017-Jul-22 10:30N 48°02' W 122°39'815.5
2017-Jul-22 10:00N 48°09' W 122°45'815.7
2017-Jul-22 09:29N 48°12' W 122°57'715.0
2017-Jul-22 09:00N 48°12' W 123°07'816.4
2017-Jul-22 08:30N 48°10' W 123°20'713.9
2017-Jul-22 07:59N 48°14' W 123°29'817.2
2017-Jul-22 07:30N 48°22' W 123°25'4 1.1
2017-Jul-22 04:12N 48°25' W 123°24'0 0.1
2017-Jul-22 01:27N 48°25' W 123°24'2 5.6
2017-Jul-22 01:00N 48°23' W 123°25'714.3
2017-Jul-22 00:30N 48°16' W 123°27'1020.4
2017-Jul-22 00:00N 48°13' W 123°42'1122.0
2017-Jul-21 23:30N 48°15' W 123°59'1122.5
2017-Jul-21 23:00N 48°20' W 124°14'1121.9
2017-Jul-21 22:30N 48°24' W 124°29'1121.2
2017-Jul-21 22:00N 48°28' W 124°43'1122.0
2017-Jul-21 21:30N 48°29' W 125°00'1121.9
2017-Jul-21 21:00N 48°31' W 125°16'1122.0
2017-Jul-21 20:31N 48°37' W 125°30'1121.6
2017-Jul-21 20:00N 48°44' W 125°43'1121.6
2017-Jul-21 19:30N 48°50' W 125°57'1020.7
2017-Jul-21 19:00N 48°56' W 126°10'1020.9
2017-Jul-21 18:30N 49°02' W 126°23'1020.9
2017-Jul-21 18:01N 49°07' W 126°36'1020.5
2017-Jul-21 17:31N 49°14' W 126°48'1221.1
2017-Jul-21 16:57N 49°22' W 127°00'10221.9
2017-Jul-21 12:17N 50°35' W 128°52'3920.8
2017-Jul-21 10:25N 51°08' W 129°24'2 4.8
2017-Jul-21 10:00N 51°06' W 129°24'17722.1 120 / 341015.710.8 14.012.214.0
2017-Jul-21 02:00N 53°54' W 130°54'28011.2 140 / 251016.910.8 14.012.214.0
2017-Jul-20 01:00N 58°00' W 134°54'43 4.3 110 / 121016.2 5.4 15.012.312.5
2017-Jul-19 15:00N 58°42' W 135°12'14 2.3 280 / 111016.5 2.2 9.0 9.0 9.0
2017-Jul-19 09:00N 58°30' W 135°00'2512.4 110 / 151020.710.8 14.012.213.0
2017-Jul-19 07:00N 58°54' W 135°12'115 2.8 140 / 291021.810.8 12.010.112.0
2017-Jul-17 14:00N 57°06' W 134°00'15619.5 240 / 111024.4 5.4 11.0 9.0 9.0
2017-Jul-17 06:00N 54°30' W 133°54'6622.1 240 / 151024.710.8 13.011.113.0
2017-Jul-17 03:00N 53°30' W 133°06'32920.7 240 / 81024.610.8 13.013.013.0
2017-Jul-16 11:04N 49°32' W 127°02'221.9
2017-Jul-16 10:58N 49°30' W 126°59'1021.3
2017-Jul-16 10:30N 49°24' W 126°47'1021.2
2017-Jul-16 10:00N 49°17' W 126°35'1121.4
2017-Jul-16 09:30N 49°11' W 126°22'1021.1
2017-Jul-16 09:00N 49°04' W 126°09'1020.9
2017-Jul-16 08:30N 48°58' W 125°57'1020.8
2017-Jul-16 08:00N 48°51' W 125°45'1020.8
2017-Jul-16 07:30N 48°46' W 125°31'1121.3
2017-Jul-16 07:00N 48°41' W 125°16'1121.4
2017-Jul-16 06:30N 48°37' W 125°02'1122.3
2017-Jul-16 06:00N 48°32' W 124°47'1121.9
2017-Jul-16 05:30N 48°28' W 124°31'1121.1
2017-Jul-16 05:00N 48°24' W 124°17'1020.5
2017-Jul-16 04:30N 48°20' W 124°03'1020.3
2017-Jul-16 04:00N 48°17' W 123°48'1019.2
2017-Jul-16 03:30N 48°15' W 123°34'917.2
2017-Jul-16 03:00N 48°11' W 123°22'510.3
2017-Jul-16 02:30N 48°10' W 123°15'918.5
2017-Jul-16 02:00N 48°12' W 123°01'1018.6
2017-Jul-16 01:29N 48°11' W 122°47'1017.7
2017-Jul-16 00:56N 48°03' W 122°38'818.6
2017-Jul-16 00:31N 47°57' W 122°32'1019.2
2017-Jul-16 00:01N 47°48' W 122°27'918.3
2017-Jul-15 23:31N 47°38' W 122°27'3 5.4
2017-Jul-15 23:00N 47°38' W 122°23'0 0.0
2017-Jul-15 22:30N 47°38' W 122°23'0 0.0
2017-Jul-15 22:00N 47°38' W 122°23'0 0.0
2017-Jul-15 21:30N 47°38' W 122°23'0 0.0
2017-Jul-15 20:59N 47°38' W 122°23'0 0.0
2017-Jul-15 20:31N 47°38' W 122°23'0 0.0
2017-Jul-15 20:00N 47°38' W 122°23'0 0.0
2017-Jul-15 19:30N 47°38' W 122°23'0 0.0
2017-Jul-15 18:59N 47°38' W 122°23'0 0.0
2017-Jul-15 18:29N 47°38' W 122°23'0 0.0
2017-Jul-15 17:59N 47°38' W 122°23'0 0.0
2017-Jul-15 17:29N 47°38' W 122°23'0 0.0
2017-Jul-15 16:58N 47°38' W 122°23'0 0.0
2017-Jul-15 16:31N 47°38' W 122°23'0 0.0
2017-Jul-15 16:00N 47°38' W 122°23'0 0.0
2017-Jul-15 15:30N 47°38' W 122°23'0 0.0
2017-Jul-15 15:00N 47°38' W 122°23'0 0.0
2017-Jul-15 14:00N 47°38' W 122°23'0 0.0
2017-Jul-15 13:30N 47°38' W 122°23'0 0.0
2017-Jul-15 13:00N 47°38' W 122°23'2 3.7
2017-Jul-15 12:30N 47°37' W 122°25'612.4
2017-Jul-15 12:00N 47°43' W 122°28'714.5
2017-Jul-15 11:30N 47°50' W 122°28'815.6
2017-Jul-15 11:00N 47°57' W 122°34'815.4
2017-Jul-15 10:29N 48°04' W 122°39'714.6
2017-Jul-15 10:00N 48°10' W 122°46'815.9
2017-Jul-15 09:30N 48°11' W 122°57'816.7
2017-Jul-15 09:00N 48°12' W 123°10'816.2
2017-Jul-15 08:30N 48°10' W 123°22'613.0
2017-Jul-15 08:00N 48°13' W 123°30'918.5
2017-Jul-15 07:30N 48°22' W 123°25'3 6.7
2017-Jul-15 07:00N 48°25' W 123°24'0 0.2
2017-Jul-15 06:30N 48°25' W 123°23'0 0.0
2017-Jul-15 06:00N 48°25' W 123°23'0 0.0
2017-Jul-15 05:30N 48°25' W 123°23'0 0.0
2017-Jul-15 04:24N 48°25' W 123°23'0 0.0
2017-Jul-15 03:44N 48°25' W 123°23'0 0.0
2017-Jul-15 03:29N 48°25' W 123°23'0 0.0
2017-Jul-15 02:20N 48°25' W 123°23'0 0.0
2017-Jul-15 01:59N 48°25' W 123°23'0 0.0
2017-Jul-15 01:30N 48°25' W 123°23'2 3.9
2017-Jul-15 01:00N 48°23' W 123°25'714.1
2017-Jul-15 00:30N 48°16' W 123°25'1019.7
2017-Jul-15 00:00N 48°14' W 123°39'1122.1
2017-Jul-14 23:30N 48°14' W 123°56'1121.6
2017-Jul-14 23:00N 48°18' W 124°11'1020.8
2017-Jul-14 22:31N 48°23' W 124°25'918.9
2017-Jul-14 22:00N 48°27' W 124°38'917.2
2017-Jul-14 21:30N 48°29' W 124°50'917.7
2017-Jul-14 21:00N 48°29' W 125°04'917.4
2017-Jul-14 20:30N 48°31' W 125°16'1020.1
2017-Jul-14 20:00N 48°37' W 125°29'1122.0
2017-Jul-14 19:31N 48°43' W 125°42'1121.9
2017-Jul-14 19:00N 48°49' W 125°56'1121.5
2017-Jul-14 18:30N 48°56' W 126°09'1121.6
2017-Jul-14 18:00N 49°02' W 126°23'1122.1
2017-Jul-14 17:30N 49°08' W 126°37'1222.5
2017-Jul-14 16:57N 49°16' W 126°51'8222.6
2017-Jul-14 13:21N 50°14' W 128°20'14119.1
2017-Jul-14 06:00N 52°18' W 130°06'7625.4 130 / 201021.3 5.4 12.011.012.0
2017-Jul-14 03:00N 53°30' W 130°48'26911.2 120 / 251020.310.8 13.012.112.0
2017-Jul-13 03:00N 57°24' W 134°42'6119.8 130 / 141015.110.8 13.510.610.5
2017-Jul-12 23:55N 58°16' W 135°40'819.3
2017-Jul-12 23:31N 58°20' W 135°54'714.3
2017-Jul-12 23:00N 58°26' W 135°60'510.3
2017-Jul-12 22:30N 58°31' W 136°04'917.7
2017-Jul-12 22:00N 58°39' W 136°09'  
Track history (hours):
 
Tides and Currents Weather Stations Pressure Air Temp Water Temp Dewpoint Dewpoint Depression Visibility Wind Speed Wind Dir Waves Ship Positions

Ruby Princess

Last reported at 2017-Jul-22 18:28 UTC. Time now 2017-Jul-22 18:30 UTC.
Position N 47°38' W 122°23'.

Length 289 m; draft 8.6 m.

Type: Ship. MMSI: 310567000.

Date/timePositionNaut miles runAvg speedWind from/ knotsBaromVisibWave heightAir tempDewpointWater temp
2017-Jul-22 18:28N 47°38' W 122°23'0 0.0
2017-Jul-22 18:00N 47°38' W 122°23'0 0.0
2017-Jul-22 17:30N 47°38' W 122°23'0 0.0
2017-Jul-22 17:00N 47°38' W 122°23'0 0.0
2017-Jul-22 16:30N 47°38' W 122°23'0 0.0
2017-Jul-22 16:00N 47°38' W 122°23'0 0.0
2017-Jul-22 15:26N 47°38' W 122°23'0 0.0
2017-Jul-22 14:59N 47°38' W 122°23'0 0.0
2017-Jul-22 13:59N 47°38' W 122°23'0 0.0
2017-Jul-22 13:29N 47°38' W 122°23'0 0.0
2017-Jul-22 13:00N 47°38' W 122°23'1 2.9
2017-Jul-22 12:30N 47°37' W 122°25'510.4
2017-Jul-22 12:00N 47°42' W 122°28'714.8
2017-Jul-22 11:30N 47°49' W 122°28'714.9
2017-Jul-22 11:00N 47°56' W 122°32'815.6
2017-Jul-22 10:30N 48°02' W 122°39'815.5
2017-Jul-22 10:00N 48°09' W 122°45'815.7
2017-Jul-22 09:29N 48°12' W 122°57'715.0
2017-Jul-22 09:00N 48°12' W 123°07'816.4
2017-Jul-22 08:30N 48°10' W 123°20'713.9
2017-Jul-22 07:59N 48°14' W 123°29'817.2
2017-Jul-22 07:30N 48°22' W 123°25'4 1.1
2017-Jul-22 04:12N 48°25' W 123°24'0 0.1
2017-Jul-22 01:27N 48°25' W 123°24'2 5.6
2017-Jul-22 01:00N 48°23' W 123°25'714.3
2017-Jul-22 00:30N 48°16' W 123°27'1020.4
2017-Jul-22 00:00N 48°13' W 123°42'1122.0
2017-Jul-21 23:30N 48°15' W 123°59'1122.5
2017-Jul-21 23:00N 48°20' W 124°14'1121.9
2017-Jul-21 22:30N 48°24' W 124°29'1121.2
2017-Jul-21 22:00N 48°28' W 124°43'1122.0
2017-Jul-21 21:30N 48°29' W 125°00'1121.9
2017-Jul-21 21:00N 48°31' W 125°16'1122.0
2017-Jul-21 20:31N 48°37' W 125°30'1121.6
2017-Jul-21 20:00N 48°44' W 125°43'1121.6
2017-Jul-21 19:30N 48°50' W 125°57'1020.7
2017-Jul-21 19:00N 48°56' W 126°10'1020.9
2017-Jul-21 18:30N 49°02' W 126°23'1020.9
2017-Jul-21 18:01N 49°07' W 126°36'1020.5
2017-Jul-21 17:31N 49°14' W 126°48'1221.1
2017-Jul-21 16:57N 49°22' W 127°00'10221.9
2017-Jul-21 12:17N 50°35' W 128°52'3920.8
2017-Jul-21 10:25N 51°08' W 129°24'2 4.8
2017-Jul-21 10:00N 51°06' W 129°24'17722.1 120 / 341015.710.8 14.012.214.0
2017-Jul-21 02:00N 53°54' W 130°54'28011.2 140 / 251016.910.8 14.012.214.0
2017-Jul-20 01:00N 58°00' W 134°54'43 4.3 110 / 121016.2 5.4 15.012.312.5
2017-Jul-19 15:00N 58°42' W 135°12'14 2.3 280 / 111016.5 2.2 9.0 9.0 9.0
2017-Jul-19 09:00N 58°30' W 135°00'2512.4 110 / 151020.710.8 14.012.213.0
2017-Jul-19 07:00N 58°54' W 135°12'115 2.8 140 / 291021.810.8 12.010.112.0
2017-Jul-17 14:00N 57°06' W 134°00'15619.5 240 / 111024.4 5.4 11.0 9.0 9.0
2017-Jul-17 06:00N 54°30' W 133°54'6622.1 240 / 151024.710.8 13.011.113.0
2017-Jul-17 03:00N 53°30' W 133°06'32920.7 240 / 81024.610.8 13.013.013.0
2017-Jul-16 11:04N 49°32' W 127°02'221.9
2017-Jul-16 10:58N 49°30' W 126°59'1021.3
2017-Jul-16 10:30N 49°24' W 126°47'1021.2
2017-Jul-16 10:00N 49°17' W 126°35'1121.4
2017-Jul-16 09:30N 49°11' W 126°22'1021.1
2017-Jul-16 09:00N 49°04' W 126°09'1020.9
2017-Jul-16 08:30N 48°58' W 125°57'1020.8
2017-Jul-16 08:00N 48°51' W 125°45'1020.8
2017-Jul-16 07:30N 48°46' W 125°31'1121.3
2017-Jul-16 07:00N 48°41' W 125°16'1121.4
2017-Jul-16 06:30N 48°37' W 125°02'1122.3
2017-Jul-16 06:00N 48°32' W 124°47'1121.9
2017-Jul-16 05:30N 48°28' W 124°31'1121.1
2017-Jul-16 05:00N 48°24' W 124°17'1020.5
2017-Jul-16 04:30N 48°20' W 124°03'1020.3
2017-Jul-16 04:00N 48°17' W 123°48'1019.2
2017-Jul-16 03:30N 48°15' W 123°34'917.2
2017-Jul-16 03:00N 48°11' W 123°22'510.3
2017-Jul-16 02:30N 48°10' W 123°15'918.5
2017-Jul-16 02:00N 48°12' W 123°01'1018.6
2017-Jul-16 01:29N 48°11' W 122°47'1017.7
2017-Jul-16 00:56N 48°03' W 122°38'818.6
2017-Jul-16 00:31N 47°57' W 122°32'1019.2
2017-Jul-16 00:01N 47°48' W 122°27'918.3
2017-Jul-15 23:31N 47°38' W 122°27'3 5.4
2017-Jul-15 23:00N 47°38' W 122°23'0 0.0
2017-Jul-15 22:30N 47°38' W 122°23'0 0.0
2017-Jul-15 22:00N 47°38' W 122°23'0 0.0
2017-Jul-15 21:30N 47°38' W 122°23'0 0.0
2017-Jul-15 20:59N 47°38' W 122°23'0 0.0
2017-Jul-15 20:31N 47°38' W 122°23'0 0.0
2017-Jul-15 20:00N 47°38' W 122°23'0 0.0
2017-Jul-15 19:30N 47°38' W 122°23'0 0.0
2017-Jul-15 18:59N 47°38' W 122°23'0 0.0
2017-Jul-15 18:29N 47°38' W 122°23'0 0.0
2017-Jul-15 17:59N 47°38' W 122°23'0 0.0
2017-Jul-15 17:29N 47°38' W 122°23'0 0.0
2017-Jul-15 16:58N 47°38' W 122°23'0 0.0
2017-Jul-15 16:31N 47°38' W 122°23'0 0.0
2017-Jul-15 16:00N 47°38' W 122°23'0 0.0
2017-Jul-15 15:30N 47°38' W 122°23'0 0.0
2017-Jul-15 15:00N 47°38' W 122°23'0 0.0
2017-Jul-15 14:00N 47°38' W 122°23'0 0.0
2017-Jul-15 13:30N 47°38' W 122°23'0 0.0
2017-Jul-15 13:00N 47°38' W 122°23'2 3.7
2017-Jul-15 12:30N 47°37' W 122°25'612.4
2017-Jul-15 12:00N 47°43' W 122°28'714.5
2017-Jul-15 11:30N 47°50' W 122°28'815.6
2017-Jul-15 11:00N 47°57' W 122°34'815.4
2017-Jul-15 10:29N 48°04' W 122°39'714.6
2017-Jul-15 10:00N 48°10' W 122°46'815.9
2017-Jul-15 09:30N 48°11' W 122°57'816.7
2017-Jul-15 09:00N 48°12' W 123°10'816.2
2017-Jul-15 08:30N 48°10' W 123°22'613.0
2017-Jul-15 08:00N 48°13' W 123°30'918.5
2017-Jul-15 07:30N 48°22' W 123°25'3 6.7
2017-Jul-15 07:00N 48°25' W 123°24'0 0.2
2017-Jul-15 06:30N 48°25' W 123°23'0 0.0
2017-Jul-15 06:00N 48°25' W 123°23'0 0.0
2017-Jul-15 05:30N 48°25' W 123°23'0 0.0
2017-Jul-15 04:24N 48°25' W 123°23'0 0.0
2017-Jul-15 03:44N 48°25' W 123°23'0 0.0
2017-Jul-15 03:29N 48°25' W 123°23'0 0.0
2017-Jul-15 02:20N 48°25' W 123°23'0 0.0
2017-Jul-15 01:59N 48°25' W 123°23'0 0.0
2017-Jul-15 01:30N 48°25' W 123°23'2 3.9
2017-Jul-15 01:00N 48°23' W 123°25'714.1
2017-Jul-15 00:30N 48°16' W 123°25'1019.7
2017-Jul-15 00:00N 48°14' W 123°39'1122.1
2017-Jul-14 23:30N 48°14' W 123°56'1121.6
2017-Jul-14 23:00N 48°18' W 124°11'1020.8
2017-Jul-14 22:31N 48°23' W 124°25'918.9
2017-Jul-14 22:00N 48°27' W 124°38'917.2
2017-Jul-14 21:30N 48°29' W 124°50'917.7
2017-Jul-14 21:00N 48°29' W 125°04'917.4
2017-Jul-14 20:30N 48°31' W 125°16'1020.1
2017-Jul-14 20:00N 48°37' W 125°29'1122.0
2017-Jul-14 19:31N 48°43' W 125°42'1121.9
2017-Jul-14 19:00N 48°49' W 125°56'1121.5
2017-Jul-14 18:30N 48°56' W 126°09'1121.6
2017-Jul-14 18:00N 49°02' W 126°23'1122.1
2017-Jul-14 17:30N 49°08' W 126°37'1222.5
2017-Jul-14 16:57N 49°16' W 126°51'8222.6
2017-Jul-14 13:21N 50°14' W 128°20'14119.1
2017-Jul-14 06:00N 52°18' W 130°06'7625.4 130 / 201021.3 5.4 12.011.012.0
2017-Jul-14 03:00N 53°30' W 130°48'26911.2 120 / 251020.310.8 13.012.112.0
2017-Jul-13 03:00N 57°24' W 134°42'6119.8 130 / 141015.110.8 13.510.610.5
2017-Jul-12 23:55N 58°16' W 135°40'819.3
2017-Jul-12 23:31N 58°20' W 135°54'714.3
2017-Jul-12 23:00N 58°26' W 135°60'510.3
2017-Jul-12 22:30N 58°31' W 136°04'917.7
2017-Jul-12 22:00N 58°39' W 136°09'  

Dump ship's entire track history